Terminal Aerodrome Forecast
Issued by NWS Grand Forks, ND

Home | Current Version | Previous Version | Text Only | Print | Product List | Glossary On
Versions: 1 2 3 4 5 6 7 8 9 10 11 12 13
000
FTUS43 KFGF 221100
TAFFAR
TAF
KFAR 221139Z 2212/2312 15023G31KT P6SM SCT100
     FM221500 18020G29KT P6SM BKN120
     FM222100 20014KT P6SM VCSH BKN040=

USA.gov is the U.S. government's official web portal to all federal, state and local government web resources and services.